createdAt,value
2022-08-12T00:01:13.649Z,19.62
2022-08-12T00:04:00.096Z,19.61
2022-08-12T00:06:48.044Z,19.49
2022-08-12T00:09:33.930Z,19.38
2022-08-12T00:12:23.462Z,19.23
2022-08-12T00:15:09.724Z,19.22
2022-08-12T00:17:56.105Z,19.23
2022-08-12T00:20:41.982Z,19.16
2022-08-12T00:23:27.977Z,19.17
2022-08-12T00:26:22.908Z,19.11
2022-08-12T00:29:13.406Z,19.15
2022-08-12T00:32:01.153Z,19.04
2022-08-12T00:34:49.256Z,18.99
2022-08-12T00:37:36.817Z,18.84
2022-08-12T00:40:25.898Z,18.78
2022-08-12T00:42:55.757Z,18.82
2022-08-12T00:45:27.170Z,18.76
2022-08-12T00:47:58.147Z,18.67
2022-08-12T00:50:30.639Z,18.71
2022-08-12T00:53:00.998Z,18.75
2022-08-12T00:55:30.539Z,18.68
2022-08-12T00:57:59.449Z,18.70
2022-08-12T01:00:29.424Z,18.65
2022-08-12T01:03:01.398Z,18.46
2022-08-12T01:05:50.105Z,18.43
2022-08-12T01:08:37.130Z,18.48
2022-08-12T01:11:24.074Z,18.42
2022-08-12T01:13:53.796Z,18.42
2022-08-12T01:16:26.894Z,18.41
2022-08-12T01:18:59.667Z,18.33
2022-08-12T01:22:04.602Z,18.24
2022-08-12T01:24:55.595Z,18.30
2022-08-12T01:27:26.545Z,18.27
2022-08-12T01:29:58.425Z,18.26
2022-08-12T01:32:30.427Z,18.14
2022-08-12T01:35:10.822Z,18.10
2022-08-12T01:37:49.904Z,18.07
2022-08-12T01:40:36.640Z,18.05
2022-08-12T01:43:12.035Z,17.97
2022-08-12T01:45:57.568Z,18.01
2022-08-12T01:48:51.362Z,17.96
2022-08-12T01:52:15.582Z,18.00
2022-08-12T01:54:38.613Z,17.92
2022-08-12T01:57:57.083Z,17.89
2022-08-12T02:00:13.821Z,17.78
2022-08-12T02:02:54.577Z,17.73
2022-08-12T02:06:00.867Z,17.72
2022-08-12T02:09:04.674Z,17.69
2022-08-12T02:11:36.139Z,17.60
2022-08-12T02:14:52.186Z,17.60
2022-08-12T02:17:57.042Z,17.59
2022-08-12T02:20:51.377Z,17.62
2022-08-12T02:23:26.996Z,17.62
2022-08-12T02:26:05.396Z,17.66
2022-08-12T02:28:34.773Z,17.58
2022-08-12T02:31:12.143Z,17.56
2022-08-12T02:33:42.395Z,17.43
2022-08-12T02:36:10.934Z,17.37
2022-08-12T02:38:44.595Z,17.38
2022-08-12T02:41:18.087Z,17.40
2022-08-12T02:43:53.373Z,17.28
2022-08-12T02:46:32.399Z,17.18
2022-08-12T02:49:07.738Z,17.11
2022-08-12T02:51:45.607Z,17.08
2022-08-12T02:54:15.295Z,17.07
2022-08-12T02:56:47.131Z,17.11
2022-08-12T02:59:23.871Z,17.10
2022-08-12T03:01:57.142Z,17.06
2022-08-12T03:04:33.992Z,17.16
2022-08-12T03:07:14.805Z,17.16
2022-08-12T03:10:05.515Z,17.18
2022-08-12T03:12:49.050Z,17.12
2022-08-12T03:15:22.950Z,17.17
2022-08-12T03:18:25.686Z,17.21
2022-08-12T03:20:49.016Z,17.20
2022-08-12T03:23:29.183Z,17.26
2022-08-12T03:26:02.488Z,17.19
2022-08-12T03:28:54.363Z,17.21
2022-08-12T03:31:30.128Z,17.24
2022-08-12T03:34:05.294Z,17.17
2022-08-12T03:36:39.374Z,17.21
2022-08-12T03:39:36.045Z,17.20
2022-08-12T03:42:29.137Z,17.14
2022-08-12T03:45:51.502Z,17.14
2022-08-12T03:48:39.468Z,17.15
2022-08-12T03:51:30.820Z,17.09
2022-08-12T03:54:17.692Z,17.06
2022-08-12T03:57:03.599Z,17.02
2022-08-12T03:59:49.948Z,16.96
2022-08-12T04:02:19.014Z,16.96
2022-08-12T04:04:49.426Z,16.97
2022-08-12T04:07:21.287Z,16.94
2022-08-12T04:09:50.312Z,16.93
2022-08-12T04:12:37.039Z,16.91
2022-08-12T04:15:07.670Z,16.89
2022-08-12T04:17:37.959Z,16.91
2022-08-12T04:20:27.279Z,16.93
2022-08-12T04:23:00.005Z,16.89
2022-08-12T04:25:33.177Z,16.82
2022-08-12T04:28:13.771Z,16.83
2022-08-12T04:30:43.281Z,16.78
2022-08-12T04:33:12.865Z,16.73
2022-08-12T04:35:41.343Z,16.69
2022-08-12T04:38:13.270Z,16.63
2022-08-12T04:40:42.517Z,16.55
2022-08-12T04:43:53.975Z,16.49
2022-08-12T04:45:59.564Z,16.53
2022-08-12T04:48:28.633Z,16.49
2022-08-12T04:50:59.555Z,16.43
2022-08-12T04:53:31.374Z,16.34
2022-08-12T04:56:00.291Z,16.35
2022-08-12T04:58:30.150Z,16.37
2022-08-12T05:00:58.917Z,16.43
2022-08-12T05:03:28.275Z,16.42
2022-08-12T05:06:26.402Z,16.39
2022-08-12T05:09:00.601Z,16.34
2022-08-12T05:11:30.235Z,16.34
2022-08-12T05:14:01.494Z,16.31
2022-08-12T05:16:34.162Z,16.33
2022-08-12T05:19:06.194Z,16.34
2022-08-12T05:21:42.564Z,16.35
2022-08-12T05:24:13.195Z,16.33
2022-08-12T05:26:42.165Z,16.32
2022-08-12T05:30:07.866Z,16.32
2022-08-12T05:32:03.060Z,16.34
2022-08-12T05:34:34.635Z,16.41
2022-08-12T05:37:03.509Z,16.46
2022-08-12T05:39:35.377Z,16.50
2022-08-12T05:42:05.131Z,16.54
2022-08-12T05:44:33.670Z,16.59
2022-08-12T05:47:02.820Z,16.60
2022-08-12T05:49:34.423Z,16.68
2022-08-12T05:52:03.665Z,16.72
2022-08-12T05:54:54.692Z,16.80
2022-08-12T05:57:22.641Z,16.82
2022-08-12T05:59:52.042Z,16.88
2022-08-12T06:02:20.565Z,16.94
2022-08-12T06:04:49.591Z,17.00
2022-08-12T06:07:59.630Z,17.06
2022-08-12T06:10:09.878Z,17.14
2022-08-12T06:12:39.235Z,17.20
2022-08-12T06:15:09.249Z,17.25
2022-08-12T06:17:37.745Z,17.31
2022-08-12T06:20:26.684Z,17.37
2022-08-12T06:22:58.287Z,17.43
2022-08-12T06:25:29.219Z,17.47
2022-08-12T06:28:07.826Z,17.53
2022-08-12T06:30:39.792Z,17.62
2022-08-12T06:33:59.481Z,17.69
2022-08-12T06:35:58.980Z,17.76
2022-08-12T06:38:30.712Z,17.83
2022-08-12T06:41:20.142Z,17.90
2022-08-12T06:44:07.015Z,17.99
2022-08-12T06:46:39.426Z,18.07
2022-08-12T06:49:13.436Z,18.14
2022-08-12T06:51:56.077Z,18.22
2022-08-12T06:54:30.882Z,18.31
2022-08-12T06:58:05.377Z,18.39
2022-08-12T06:59:51.131Z,18.49
2022-08-12T07:02:22.868Z,18.57
2022-08-12T07:04:53.214Z,18.68
2022-08-12T07:07:21.819Z,18.77
2022-08-12T07:09:58.105Z,18.86
2022-08-12T07:12:38.614Z,18.97
2022-08-12T07:15:11.933Z,19.05
2022-08-12T07:17:42.949Z,19.16
2022-08-12T07:20:35.805Z,19.26
2022-08-12T07:23:05.587Z,19.35
2022-08-12T07:25:41.388Z,19.44
2022-08-12T07:28:16.817Z,19.56
2022-08-12T07:30:49.652Z,19.65
2022-08-12T07:33:22.329Z,19.77
2022-08-12T07:35:54.199Z,19.89
2022-08-12T07:38:34.072Z,20.03
2022-08-12T07:41:15.529Z,20.17
2022-08-12T07:43:48.765Z,20.34
2022-08-12T07:46:20.991Z,20.48
2022-08-12T07:48:52.466Z,20.61
2022-08-12T07:51:25.423Z,20.72
2022-08-12T07:54:01.017Z,20.82
2022-08-12T07:56:32.860Z,20.91
2022-08-12T07:59:03.551Z,20.99
2022-08-12T08:01:33.960Z,21.09
2022-08-12T08:04:19.947Z,21.21
2022-08-12T08:06:50.432Z,21.30
2022-08-12T08:09:24.082Z,21.37
2022-08-12T08:12:19.210Z,21.45
2022-08-12T08:14:52.685Z,21.55
2022-08-12T08:17:21.973Z,21.66
2022-08-12T08:20:03.916Z,21.76
2022-08-12T08:22:41.038Z,21.87
2022-08-12T08:25:34.643Z,21.96
2022-08-12T08:28:05.160Z,22.09
2022-08-12T08:30:38.330Z,22.17
2022-08-12T08:33:20.086Z,22.26
2022-08-12T08:36:02.263Z,22.38
2022-08-12T08:38:35.050Z,22.51
2022-08-12T08:42:15.604Z,22.63
2022-08-12T08:44:12.088Z,22.78
2022-08-12T08:46:43.727Z,22.86
2022-08-12T08:49:15.487Z,22.94
2022-08-12T08:51:45.132Z,22.99
2022-08-12T08:54:14.154Z,23.10
2022-08-12T08:56:46.561Z,23.20
2022-08-12T08:59:16.617Z,23.27
2022-08-12T09:01:48.416Z,23.34
2022-08-12T09:05:09.606Z,23.44
2022-08-12T09:07:16.963Z,23.52
2022-08-12T09:10:01.983Z,23.60
2022-08-12T09:13:00.660Z,23.67
2022-08-12T09:15:35.268Z,23.77
2022-08-12T09:18:11.083Z,23.84
2022-08-12T09:20:42.353Z,23.92
2022-08-12T09:23:57.062Z,23.93
2022-08-12T09:28:54.068Z,23.99
2022-08-12T09:32:07.740Z,24.03
2022-08-12T09:34:26.846Z,24.11
2022-08-12T09:37:18.685Z,24.17
2022-08-12T09:40:03.518Z,24.19
2022-08-12T09:43:15.497Z,24.22
2022-08-12T09:46:06.524Z,24.26
2022-08-12T09:48:36.642Z,24.27
2022-08-12T09:51:17.017Z,24.30
2022-08-12T09:54:08.470Z,24.34
2022-08-12T09:57:02.806Z,24.36
2022-08-12T10:00:17.900Z,24.41
2022-08-12T10:02:45.303Z,24.46
2022-08-12T10:05:13.819Z,24.52
2022-08-12T10:07:47.818Z,24.61
2022-08-12T10:10:23.006Z,24.67
2022-08-12T10:13:35.130Z,24.71
2022-08-12T10:16:05.598Z,24.78
2022-08-12T10:18:51.264Z,24.83
2022-08-12T10:21:35.698Z,24.89
2022-08-12T10:24:10.224Z,24.95
2022-08-12T10:26:58.953Z,24.97
2022-08-12T10:30:03.018Z,24.98
2022-08-12T10:32:44.341Z,25.14
2022-08-12T10:35:17.002Z,25.18
2022-08-12T10:38:33.437Z,25.17
2022-08-12T10:40:58.653Z,25.22
2022-08-12T10:43:55.299Z,25.26
2022-08-12T10:46:30.966Z,25.31
2022-08-12T10:49:06.356Z,25.39
2022-08-12T10:52:32.892Z,25.45
2022-08-12T10:54:43.268Z,25.48
2022-08-12T10:57:18.348Z,25.51
2022-08-12T11:00:30.803Z,25.47
2022-08-12T11:04:28.360Z,25.50
2022-08-12T11:07:02.752Z,25.47
2022-08-12T11:08:43.569Z,25.48
2022-08-12T11:11:27.787Z,25.56
2022-08-12T11:14:09.113Z,25.62
2022-08-12T11:17:34.139Z,25.68
2022-08-12T11:19:46.823Z,25.65
2022-08-12T11:22:18.194Z,25.67
2022-08-12T11:24:55.267Z,25.77
2022-08-12T11:27:24.557Z,25.83
2022-08-12T11:30:02.001Z,25.94
2022-08-12T11:32:38.897Z,26.01
2022-08-12T11:35:11.630Z,26.06
2022-08-12T11:37:58.909Z,26.16
2022-08-12T11:40:28.555Z,26.18
2022-08-12T11:43:17.929Z,26.23
2022-08-12T11:45:53.398Z,26.30
2022-08-12T11:48:26.832Z,26.34
2022-08-12T11:50:56.617Z,26.35
2022-08-12T11:53:57.566Z,26.35
2022-08-12T11:56:14.303Z,26.33
2022-08-12T12:02:02.848Z,26.30
2022-08-12T12:04:31.243Z,26.35
2022-08-12T12:07:06.995Z,26.41
2022-08-12T12:09:52.953Z,26.42
2022-08-12T12:12:25.139Z,26.46
2022-08-12T12:14:55.753Z,26.51
2022-08-12T12:17:38.224Z,26.53
2022-08-12T12:20:11.824Z,26.57
2022-08-12T12:22:43.556Z,26.61
2022-08-12T12:25:15.001Z,26.65
2022-08-12T12:28:04.697Z,26.65
2022-08-12T12:30:35.264Z,26.67
2022-08-12T12:33:06.635Z,26.73
2022-08-12T12:36:05.755Z,26.76
2022-08-12T12:38:25.706Z,26.79
2022-08-12T12:40:54.794Z,26.78
2022-08-12T12:43:28.663Z,26.83
2022-08-12T12:46:11.916Z,26.93
2022-08-12T12:48:44.608Z,26.96
2022-08-12T12:51:49.451Z,26.94
2022-08-12T12:54:10.474Z,26.99
2022-08-12T12:56:42.743Z,27.00
2022-08-12T12:59:55.810Z,27.05
2022-08-12T13:02:08.212Z,27.13
2022-08-12T13:04:39.112Z,27.16
2022-08-12T13:07:08.299Z,27.24
2022-08-12T13:09:37.097Z,27.32
2022-08-12T13:12:10.818Z,27.44
2022-08-12T13:14:40.194Z,27.55
2022-08-12T13:17:14.555Z,27.61
2022-08-12T13:19:50.059Z,27.66
2022-08-12T13:22:23.727Z,27.74
2022-08-12T13:24:56.441Z,27.81
2022-08-12T13:27:35.778Z,27.88
2022-08-12T13:30:13.073Z,27.95
2022-08-12T13:32:56.742Z,28.03
2022-08-12T13:36:02.821Z,28.06
2022-08-12T13:38:26.673Z,28.13
2022-08-12T13:41:03.793Z,28.21
2022-08-12T13:43:41.316Z,28.32
2022-08-12T13:46:12.300Z,28.41
2022-08-12T13:48:45.212Z,28.50
2022-08-12T13:51:24.107Z,28.55
2022-08-12T13:53:59.130Z,28.62
2022-08-12T13:56:35.083Z,28.68
2022-08-12T13:59:08.557Z,28.75
2022-08-12T14:01:40.467Z,28.83
2022-08-12T14:04:11.852Z,28.90
2022-08-12T14:06:44.829Z,28.98
2022-08-12T14:09:17.671Z,29.06
2022-08-12T14:11:58.833Z,29.10
2022-08-12T14:14:31.417Z,29.21
2022-08-12T14:17:10.353Z,29.28
2022-08-12T14:20:00.480Z,29.34
2022-08-12T14:22:33.022Z,29.45
2022-08-12T14:25:02.516Z,29.54
2022-08-12T14:28:02.761Z,29.63
2022-08-12T14:30:24.196Z,29.73
2022-08-12T14:33:03.162Z,29.79
2022-08-12T14:35:34.010Z,29.87
2022-08-12T14:38:26.212Z,29.99
2022-08-12T14:40:58.849Z,30.06
2022-08-12T14:43:31.650Z,30.11
2022-08-12T14:46:16.669Z,30.24
2022-08-12T14:48:47.482Z,30.30
2022-08-12T14:52:42.598Z,30.34
2022-08-12T14:56:58.708Z,30.39
2022-08-12T14:57:19.659Z,30.48
2022-08-12T15:00:05.978Z,30.54
2022-08-12T15:02:35.230Z,30.60
2022-08-12T15:05:04.378Z,30.71
2022-08-12T15:07:48.903Z,30.76
2022-08-12T15:10:31.115Z,30.76
2022-08-12T15:13:07.684Z,30.80
2022-08-12T15:15:43.826Z,30.89
2022-08-12T15:18:21.219Z,30.95
2022-08-12T15:20:51.951Z,30.94
2022-08-12T15:23:22.748Z,30.92
2022-08-12T15:26:03.007Z,30.98
2022-08-12T15:28:35.938Z,31.03
2022-08-12T15:31:21.526Z,31.07
2022-08-12T15:33:57.182Z,31.08
2022-08-12T15:36:53.498Z,30.99
2022-08-12T15:39:16.943Z,30.94
2022-08-12T15:41:49.859Z,30.95
2022-08-12T15:44:38.255Z,30.91
2022-08-12T15:47:10.354Z,30.81
2022-08-12T15:49:54.457Z,30.81
2022-08-12T15:52:28.454Z,30.79
2022-08-12T15:55:06.269Z,30.73
2022-08-12T15:57:53.078Z,30.71
2022-08-12T16:00:33.255Z,30.63
2022-08-12T16:03:05.319Z,30.62
2022-08-12T16:06:12.030Z,30.58
2022-08-12T16:08:27.510Z,30.50
2022-08-12T16:10:57.594Z,30.41
2022-08-12T16:13:34.205Z,30.31
2022-08-12T16:16:21.709Z,30.22
2022-08-12T16:18:58.600Z,30.19
2022-08-12T16:21:50.297Z,30.21
2022-08-12T16:24:18.624Z,30.18
2022-08-12T16:26:51.387Z,30.15
2022-08-12T16:29:38.434Z,30.17
2022-08-12T16:32:31.110Z,30.17
2022-08-12T16:35:01.358Z,30.15
2022-08-12T16:38:24.767Z,30.12
2022-08-12T16:40:23.609Z,30.10
2022-08-12T16:42:54.118Z,30.09
2022-08-12T16:46:08.064Z,30.10
2022-08-12T16:48:35.042Z,30.12
2022-08-12T16:51:09.474Z,30.12
2022-08-12T16:53:43.791Z,30.09
2022-08-12T16:56:17.108Z,30.08
2022-08-12T16:58:47.223Z,30.08
2022-08-12T17:01:19.882Z,30.08
2022-08-12T17:04:09.106Z,30.06
2022-08-12T17:06:43.535Z,30.01
2022-08-12T17:09:17.268Z,29.94
2022-08-12T17:11:49.811Z,29.91
2022-08-12T17:14:23.728Z,29.85
2022-08-12T17:16:57.090Z,29.77
2022-08-12T17:20:29.732Z,29.69
2022-08-12T17:22:16.889Z,29.61
2022-08-12T17:24:55.354Z,29.56
2022-08-12T17:27:30.967Z,29.51
2022-08-12T17:30:04.486Z,29.48
2022-08-12T17:32:36.822Z,29.39
2022-08-12T17:35:29.594Z,29.32
2022-08-12T17:38:02.172Z,29.22
2022-08-12T17:40:34.517Z,29.17
2022-08-12T17:43:55.547Z,29.13
2022-08-12T17:45:59.873Z,29.08
2022-08-12T17:48:34.354Z,29.06
2022-08-12T17:51:06.972Z,29.03
2022-08-12T17:54:06.060Z,28.97
2022-08-12T17:56:32.062Z,28.92
2022-08-12T17:59:02.472Z,28.88
2022-08-12T18:01:35.802Z,28.80
2022-08-12T18:04:20.889Z,28.75
2022-08-12T18:06:51.955Z,28.69
2022-08-12T18:09:24.588Z,28.63
2022-08-12T18:12:24.601Z,28.58
2022-08-12T18:15:00.720Z,28.52
2022-08-12T18:17:32.380Z,28.46
2022-08-12T18:20:15.844Z,28.41
2022-08-12T18:22:47.259Z,28.37
2022-08-12T18:26:14.396Z,28.32
2022-08-12T18:28:30.838Z,28.24
2022-08-12T18:31:03.469Z,28.17
2022-08-12T18:33:44.151Z,28.08
2022-08-12T18:36:22.320Z,27.99
2022-08-12T18:38:56.003Z,27.91
2022-08-12T18:41:33.615Z,27.78
2022-08-12T18:44:07.965Z,27.70
2022-08-12T18:46:55.308Z,27.57
2022-08-12T18:49:33.055Z,27.47
2022-08-12T18:52:11.891Z,27.30
2022-08-12T18:54:48.891Z,27.22
2022-08-12T18:57:45.858Z,27.17
2022-08-12T19:00:21.588Z,27.05
2022-08-12T19:02:53.892Z,26.96
2022-08-12T19:05:53.782Z,26.85
2022-08-12T19:08:16.480Z,26.71
2022-08-12T19:10:50.086Z,26.60
2022-08-12T19:13:38.556Z,26.48
2022-08-12T19:16:11.382Z,26.40
2022-08-12T19:18:45.060Z,26.33
2022-08-12T19:21:17.021Z,26.25
2022-08-12T19:24:12.613Z,26.08
2022-08-12T19:26:43.299Z,26.03
2022-08-12T19:29:13.505Z,25.97
2022-08-12T19:31:57.191Z,25.92
2022-08-12T19:37:26.568Z,25.73
2022-08-12T19:40:09.520Z,25.67
2022-08-12T19:42:57.581Z,25.59
2022-08-12T19:45:43.272Z,25.52
2022-08-12T19:48:20.693Z,25.38
2022-08-12T19:50:53.017Z,25.29
2022-08-12T19:53:23.885Z,25.25
2022-08-12T19:55:57.517Z,25.21
2022-08-12T19:58:27.346Z,25.16
2022-08-12T20:00:57.865Z,25.04
2022-08-12T20:03:40.311Z,24.95
2022-08-12T20:06:13.859Z,24.84
2022-08-12T20:08:53.837Z,24.76
2022-08-12T20:12:11.623Z,24.69
2022-08-12T20:14:19.047Z,24.61
2022-08-12T20:16:57.191Z,24.54
2022-08-12T20:20:02.739Z,24.44
2022-08-12T20:22:39.295Z,24.35
2022-08-12T20:25:15.502Z,24.26
2022-08-12T20:28:03.470Z,24.23
2022-08-12T20:30:59.663Z,24.11
2022-08-12T20:33:32.777Z,24.06
2022-08-12T20:36:41.095Z,24.00
2022-08-12T20:39:35.856Z,23.92
2022-08-12T20:42:00.002Z,23.86
2022-08-12T20:44:31.861Z,23.76
2022-08-12T20:47:11.669Z,23.64
2022-08-12T20:49:54.860Z,23.58
2022-08-12T20:52:29.955Z,23.53
2022-08-12T20:55:15.566Z,23.50
2022-08-12T20:58:02.004Z,23.39
2022-08-12T21:00:33.418Z,23.29
2022-08-12T21:03:26.639Z,23.18
2022-08-12T21:06:14.137Z,23.14
2022-08-12T21:08:43.809Z,23.06
2022-08-12T21:11:13.012Z,23.02
2022-08-12T21:13:42.352Z,22.92
2022-08-12T21:16:13.991Z,22.84
2022-08-12T21:18:42.578Z,22.80
2022-08-12T21:21:22.941Z,22.76
2022-08-12T21:23:56.560Z,22.71
2022-08-12T21:26:28.425Z,22.68
2022-08-12T21:29:01.109Z,22.57
2022-08-12T21:32:39.735Z,22.52
2022-08-12T21:34:24.307Z,22.43
2022-08-12T21:37:13.029Z,22.36
2022-08-12T21:39:52.145Z,22.24
2022-08-12T21:42:27.711Z,22.20
2022-08-12T21:45:47.731Z,22.08
2022-08-12T21:47:46.511Z,22.01
2022-08-12T21:50:21.612Z,21.98
2022-08-12T21:52:55.290Z,21.91
2022-08-12T21:55:26.788Z,21.85
2022-08-12T21:58:02.686Z,21.77
2022-08-12T22:00:34.459Z,21.70
2022-08-12T22:04:02.185Z,21.63
2022-08-12T22:06:31.481Z,21.58
2022-08-12T22:09:15.976Z,21.50
2022-08-12T22:11:56.533Z,21.43
2022-08-12T22:14:29.518Z,21.41
2022-08-12T22:17:01.516Z,21.37
2022-08-12T22:19:36.259Z,21.33
2022-08-12T22:22:06.254Z,21.24
2022-08-12T22:24:35.756Z,21.13
2022-08-12T22:27:22.799Z,21.09
2022-08-12T22:30:19.706Z,20.95
2022-08-12T22:32:50.501Z,20.95
2022-08-12T22:35:55.551Z,20.90
2022-08-12T22:38:24.900Z,20.83
2022-08-12T22:40:58.431Z,20.77
2022-08-12T22:44:00.815Z,20.75
2022-08-12T22:46:52.664Z,20.75
2022-08-12T22:49:37.305Z,20.61
2022-08-12T22:52:18.665Z,20.56
2022-08-12T22:55:03.176Z,20.55
2022-08-12T22:57:49.319Z,20.58
2022-08-12T23:00:26.963Z,20.48
2022-08-12T23:03:03.172Z,20.35
2022-08-12T23:05:56.826Z,20.31
2022-08-12T23:08:32.034Z,20.35
2022-08-12T23:11:04.690Z,20.36
2022-08-12T23:13:55.169Z,20.35
2022-08-12T23:16:31.679Z,20.35
2022-08-12T23:19:09.762Z,20.31
2022-08-12T23:22:06.457Z,20.29
2022-08-12T23:25:21.258Z,20.16
2022-08-12T23:28:29.289Z,20.21
2022-08-12T23:31:04.066Z,20.00
2022-08-12T23:34:01.494Z,19.95
2022-08-12T23:36:39.893Z,19.92
2022-08-12T23:40:14.753Z,19.76
2022-08-12T23:42:18.269Z,19.67
2022-08-12T23:44:52.561Z,19.63
2022-08-12T23:47:22.989Z,19.53
2022-08-12T23:49:58.442Z,19.52
2022-08-12T23:52:34.400Z,19.48
2022-08-12T23:55:24.442Z,19.43
2022-08-12T23:58:22.650Z,19.35
